Time;durP1;ratioP1;P1;durP2;ratioP2;P2;SDS_P1;SDS_P2;PMS_P1;PMS_P2;Temp;Humidity;BMP_temperature;BMP_pressure;BME280_temperature;BME280_humidity;BME280_pressure;Samples;Min_cycle;Max_cycle;Signal;HPM_P1;HPM_P2
2021/09/11 00:02:14;;;;;;;26.10;13.23;;;17.00;99.90;;;;;;4999668;28;20034;-70
2021/09/11 00:04:45;;;;;;;29.23;13.63;;;17.00;99.80;;;;;;5000833;28;20041;-68
2021/09/11 00:07:11;;;;;;;30.08;14.07;;;17.00;99.90;;;;;;5000539;28;20033;-69
2021/09/11 00:09:36;;;;;;;35.13;15.45;;;17.00;99.90;;;;;;5000660;28;20549;-70
2021/09/11 00:12:02;;;;;;;29.27;14.68;;;17.00;99.90;;;;;;4995926;28;20116;-68
2021/09/11 00:14:28;;;;;;;36.80;15.60;;;17.10;99.90;;;;;;5011227;28;20022;-69
2021/09/11 00:16:54;;;;;;;30.25;15.10;;;17.00;99.90;;;;;;5002795;28;20113;-69
2021/09/11 00:19:19;;;;;;;33.92;16.13;;;17.00;99.90;;;;;;4997433;28;20858;-71
2021/09/11 00:21:45;;;;;;;37.22;16.88;;;17.10;99.90;;;;;;5001683;28;20196;-69
2021/09/11 00:24:10;;;;;;;36.58;16.92;;;17.10;99.90;;;;;;5022835;28;20046;-69
2021/09/11 00:26:36;;;;;;;39.35;18.02;;;17.00;99.90;;;;;;5000698;28;20033;-67
2021/09/11 00:29:02;;;;;;;42.67;19.90;;;17.10;99.90;;;;;;5004816;28;20036;-70
2021/09/11 00:31:27;;;;;;;48.88;20.55;;;17.10;99.90;;;;;;5004904;28;20025;-67
2021/09/11 00:33:53;;;;;;;55.28;21.55;;;17.10;99.90;;;;;;5004689;28;20026;-69
2021/09/11 00:36:18;;;;;;;66.68;23.15;;;17.10;99.90;;;;;;5003064;28;20014;-70
2021/09/11 00:38:44;;;;;;;66.63;24.05;;;17.10;99.90;;;;;;5004079;28;20105;-68
2021/09/11 00:41:10;;;;;;;78.10;24.15;;;17.20;99.90;;;;;;5001503;28;20029;-70
2021/09/11 00:43:44;;;;;;;76.68;24.48;;;17.20;99.90;;;;;;5001492;28;20743;-69
2021/09/11 00:46:10;;;;;;;68.50;26.25;;;17.20;99.90;;;;;;5002332;28;20034;-70
2021/09/11 00:48:36;;;;;;;84.25;26.10;;;17.10;99.90;;;;;;5003365;28;20506;-68
2021/09/11 00:51:01;;;;;;;61.67;24.98;;;17.20;99.90;;;;;;4960004;28;1119327;-70
2021/09/11 00:53:27;;;;;;;71.10;27.20;;;17.10;99.90;;;;;;5004232;28;20037;-70
2021/09/11 00:55:52;;;;;;;77.85;26.75;;;17.10;99.90;;;;;;5002349;28;20036;-70
2021/09/11 00:58:18;;;;;;;68.93;25.15;;;17.10;99.90;;;;;;5010069;28;20061;-70
2021/09/11 01:00:44;;;;;;;79.55;28.55;;;17.10;99.90;;;;;;5000591;28;20036;-70
2021/09/11 01:03:11;;;;;;;90.10;29.10;;;17.10;99.90;;;;;;5004747;28;20056;-67
2021/09/11 01:05:38;;;;;;;81.38;27.67;;;17.10;99.90;;;;;;4998911;28;20026;-70
2021/09/11 01:08:04;;;;;;;102.13;28.17;;;17.10;99.90;;;;;;5000425;28;20045;-70
2021/09/11 01:10:30;;;;;;;98.45;28.88;;;17.10;99.90;;;;;;5002333;28;20030;-68
2021/09/11 01:12:56;;;;;;;96.50;31.02;;;17.10;99.90;;;;;;5000375;28;20088;-69
2021/09/11 01:15:35;;;;;;;96.13;31.55;;;17.10;99.90;;;;;;5002280;28;20022;-69
2021/09/11 01:18:01;;;;;;;92.53;31.92;;;17.10;99.90;;;;;;5003712;28;20026;-69
2021/09/11 01:20:27;;;;;;;103.97;33.05;;;17.10;99.90;;;;;;5004720;28;20065;-70
2021/09/11 01:22:53;;;;;;;99.35;33.78;;;17.10;99.90;;;;;;4999931;28;20061;-70
2021/09/11 01:25:19;;;;;;;118.10;35.28;;;17.10;99.90;;;;;;5001800;28;20037;-68
2021/09/11 01:27:44;;;;;;;110.53;35.47;;;17.00;99.90;;;;;;5003299;28;20104;-69
2021/09/11 01:30:15;;;;;;;111.30;36.92;;;17.00;99.90;;;;;;5006113;28;20055;-70
2021/09/11 01:32:42;;;;;;;135.20;37.00;;;17.10;99.90;;;;;;5002047;28;20045;-68
2021/09/11 01:35:08;;;;;;;136.77;36.35;;;17.10;99.90;;;;;;4998167;28;20046;-70
2021/09/11 01:37:34;;;;;;;153.40;37.22;;;17.10;99.90;;;;;;4999161;28;20105;-70
2021/09/11 01:40:00;;;;;;;129.23;35.45;;;17.00;99.90;;;;;;5003276;28;20493;-69
2021/09/11 01:42:27;;;;;;;123.45;37.00;;;17.10;99.90;;;;;;4999094;28;20052;-68
2021/09/11 01:44:58;;;;;;;144.07;36.35;;;17.10;99.90;;;;;;5002951;28;20473;-68
2021/09/11 01:47:24;;;;;;;125.53;35.85;;;17.10;99.90;;;;;;5000412;28;20037;-70
2021/09/11 01:49:50;;;;;;;167.82;35.65;;;17.10;99.90;;;;;;5002657;28;20038;-68
2021/09/11 01:52:16;;;;;;;221.80;34.90;;;17.10;99.90;;;;;;5003118;28;20484;-70
2021/09/11 01:54:42;;;;;;;250.75;36.20;;;17.10;99.90;;;;;;5004916;28;20030;-69
2021/09/11 01:57:11;;;;;;;255.90;36.10;;;17.10;99.90;;;;;;5003130;28;20022;-69
2021/09/11 01:59:38;;;;;;;227.85;33.50;;;17.10;99.90;;;;;;5004060;28;20037;-69
2021/09/11 02:02:04;;;;;;;217.13;32.42;;;17.10;99.90;;;;;;4997501;28;20076;-71
2021/09/11 02:04:31;;;;;;;213.18;32.72;;;17.10;99.90;;;;;;4997867;28;20565;-68
2021/09/11 02:06:57;;;;;;;148.05;30.33;;;17.20;99.90;;;;;;5002547;28;20125;-70
2021/09/11 02:09:23;;;;;;;192.98;33.05;;;17.10;99.90;;;;;;5004707;28;20086;-68
2021/09/11 02:11:49;;;;;;;183.02;31.75;;;17.20;99.90;;;;;;5002545;28;20257;-69
2021/09/11 02:14:14;;;;;;;170.85;31.02;;;17.20;99.90;;;;;;5006004;28;20033;-70
2021/09/11 02:16:40;;;;;;;159.32;30.67;;;17.20;99.90;;;;;;5005943;28;20024;-71
2021/09/11 02:19:06;;;;;;;175.45;31.20;;;17.20;99.90;;;;;;5004261;28;20054;-68
2021/09/11 02:21:32;;;;;;;200.38;33.53;;;17.20;99.90;;;;;;4985754;28;20553;-69
2021/09/11 02:23:57;;;;;;;189.35;33.35;;;17.30;99.90;;;;;;5007258;28;20108;-68
2021/09/11 02:26:23;;;;;;;232.63;33.95;;;17.30;99.90;;;;;;5005957;28;20741;-70
2021/09/11 02:28:49;;;;;;;234.43;33.85;;;17.20;99.90;;;;;;4988823;28;20425;-71
2021/09/11 02:31:14;;;;;;;167.80;32.25;;;17.20;99.90;;;;;;5004913;28;20029;-68
2021/09/11 02:33:44;;;;;;;187.82;34.95;;;17.30;99.90;;;;;;5006883;28;20536;-68
2021/09/11 02:36:09;;;;;;;183.10;34.97;;;17.30;99.90;;;;;;5006094;28;20465;-70
2021/09/11 02:38:35;;;;;;;172.20;34.35;;;17.20;99.90;;;;;;5011418;28;20061;-69
2021/09/11 02:41:01;;;;;;;205.40;35.25;;;17.20;99.90;;;;;;5007089;28;20022;-69
2021/09/11 02:43:27;;;;;;;167.77;33.63;;;17.20;99.90;;;;;;5004648;28;20241;-69
2021/09/11 02:45:52;;;;;;;230.18;35.90;;;17.20;99.90;;;;;;5005977;28;20060;-71
2021/09/11 02:48:18;;;;;;;218.75;36.78;;;17.20;99.90;;;;;;5006081;28;20025;-70
2021/09/11 02:50:43;;;;;;;182.23;34.53;;;17.20;99.90;;;;;;4983526;28;20428;-68
2021/09/11 02:53:10;;;;;;;137.07;33.22;;;17.20;99.90;;;;;;5001645;28;20026;-70
2021/09/11 02:55:36;;;;;;;121.13;34.03;;;17.10;99.90;;;;;;5011739;28;20025;-70
2021/09/11 02:58:01;;;;;;;126.50;34.10;;;17.10;99.90;;;;;;5013831;28;20080;-69
2021/09/11 03:00:27;;;;;;;126.70;34.65;;;17.10;99.90;;;;;;5017016;28;20034;-70
2021/09/11 03:02:53;;;;;;;139.13;33.75;;;17.10;99.90;;;;;;5002906;28;20064;-70
2021/09/11 03:05:18;;;;;;;122.32;34.35;;;17.10;99.90;;;;;;5006058;28;20488;-71
2021/09/11 03:07:44;;;;;;;106.38;34.97;;;17.10;99.90;;;;;;5004058;28;20061;-70
2021/09/11 03:10:10;;;;;;;89.05;32.28;;;17.10;99.90;;;;;;5010529;28;20033;-70
2021/09/11 03:12:36;;;;;;;92.90;32.20;;;17.10;99.90;;;;;;4998754;28;20036;-70
2021/09/11 03:15:02;;;;;;;112.35;34.63;;;17.10;99.90;;;;;;5006821;28;20034;-69
2021/09/11 03:17:28;;;;;;;104.82;34.90;;;17.10;99.90;;;;;;5006375;28;20048;-70
2021/09/11 03:19:53;;;;;;;111.50;34.58;;;17.00;99.90;;;;;;5013523;28;20022;-68
2021/09/11 03:22:19;;;;;;;107.20;34.75;;;17.10;99.90;;;;;;5008554;28;20030;-70
2021/09/11 03:24:45;;;;;;;109.40;34.72;;;17.10;99.90;;;;;;5003791;28;20033;-70
2021/09/11 03:27:10;;;;;;;93.35;34.17;;;17.10;99.90;;;;;;5004888;28;20026;-70
2021/09/11 03:29:36;;;;;;;99.72;35.05;;;17.10;99.90;;;;;;5006143;28;20392;-70
2021/09/11 03:32:02;;;;;;;91.65;34.30;;;17.10;99.90;;;;;;5006492;28;20080;-70
2021/09/11 03:34:27;;;;;;;83.65;33.40;;;17.10;99.90;;;;;;5005907;28;20018;-70
2021/09/11 03:36:53;;;;;;;96.95;34.30;;;17.10;99.90;;;;;;5002723;28;20030;-69
2021/09/11 03:39:19;;;;;;;97.82;35.25;;;17.10;99.90;;;;;;5005758;28;20591;-70
2021/09/11 03:41:44;;;;;;;127.85;37.17;;;17.10;99.90;;;;;;5004554;28;20018;-70
2021/09/11 03:44:10;;;;;;;121.18;37.17;;;17.10;99.90;;;;;;5001629;28;20040;-67
2021/09/11 03:46:35;;;;;;;133.45;37.50;;;17.10;99.90;;;;;;5003350;28;20059;-66
2021/09/11 03:49:01;;;;;;;109.90;35.85;;;17.20;99.90;;;;;;4999923;28;20645;-68
2021/09/11 03:51:30;;;;;;;137.82;38.30;;;17.10;99.90;;;;;;5009479;28;20026;-68
2021/09/11 03:53:56;;;;;;;158.68;38.47;;;17.10;99.90;;;;;;5004309;28;20029;-68
2021/09/11 03:56:21;;;;;;;153.55;38.53;;;17.10;99.90;;;;;;5005934;28;20026;-68
2021/09/11 03:58:47;;;;;;;153.23;38.63;;;17.10;99.90;;;;;;5007519;28;20048;-67
2021/09/11 04:01:12;;;;;;;176.07;40.53;;;17.20;99.90;;;;;;5000198;28;20105;-67
2021/09/11 04:03:38;;;;;;;174.95;38.67;;;17.10;99.90;;;;;;5005407;28;20018;-69
2021/09/11 04:06:04;;;;;;;179.15;39.55;;;17.20;99.90;;;;;;4994250;28;20141;-70
2021/09/11 04:08:30;;;;;;;202.07;40.33;;;17.20;99.90;;;;;;4994258;28;20030;-68
2021/09/11 04:10:59;;;;;;;202.93;41.05;;;17.20;99.90;;;;;;5003218;28;20113;-67
2021/09/11 04:13:26;;;;;;;217.52;39.75;;;17.20;99.90;;;;;;4994435;28;20421;-67
2021/09/11 04:15:51;;;;;;;186.27;36.40;;;17.20;99.90;;;;;;5007732;28;20018;-67
2021/09/11 04:18:17;;;;;;;172.55;37.80;;;17.10;99.90;;;;;;4999438;28;20473;-69
2021/09/11 04:20:43;;;;;;;260.23;40.25;;;17.20;99.90;;;;;;5003667;28;20105;-66
2021/09/11 04:23:09;;;;;;;272.80;40.83;;;17.20;99.90;;;;;;4995160;28;20029;-65
2021/09/11 04:25:34;;;;;;;232.20;41.38;;;17.20;99.90;;;;;;4998868;28;20029;-64
2021/09/11 04:28:00;;;;;;;229.90;41.58;;;17.20;99.90;;;;;;5000240;28;20046;-63
2021/09/11 04:30:26;;;;;;;180.93;42.30;;;17.20;99.90;;;;;;5000480;28;20592;-65
2021/09/11 04:32:52;;;;;;;186.63;41.22;;;17.20;99.90;;;;;;5002175;28;20045;-65
2021/09/11 04:35:17;;;;;;;202.48;43.38;;;17.20;99.90;;;;;;5010972;28;20374;-64
2021/09/11 04:37:43;;;;;;;192.63;41.10;;;17.20;99.90;;;;;;5000760;28;20042;-65
2021/09/11 04:40:09;;;;;;;148.70;40.70;;;17.20;99.90;;;;;;4989303;28;20069;-65
2021/09/11 04:42:35;;;;;;;139.45;40.80;;;17.20;99.90;;;;;;5002122;28;20026;-65
2021/09/11 04:45:00;;;;;;;116.22;38.08;;;17.20;99.90;;;;;;5004718;28;20378;-65
2021/09/11 04:47:26;;;;;;;168.02;40.75;;;17.20;99.90;;;;;;4994463;28;20030;-64
2021/09/11 04:49:52;;;;;;;133.15;41.22;;;17.20;99.90;;;;;;4993438;28;20061;-64
2021/09/11 04:52:18;;;;;;;112.63;38.10;;;17.20;99.90;;;;;;5001458;28;20026;-65
2021/09/11 04:54:43;;;;;;;109.95;39.15;;;17.20;99.90;;;;;;4998554;28;20044;-65
2021/09/11 04:57:09;;;;;;;118.90;40.25;;;17.20;99.90;;;;;;4998060;28;20113;-65
2021/09/11 04:59:34;;;;;;;143.77;39.53;;;17.20;99.90;;;;;;5003488;28;20026;-66
2021/09/11 05:02:00;;;;;;;135.70;39.25;;;17.20;99.90;;;;;;5001782;28;20034;-67
2021/09/11 05:04:26;;;;;;;127.00;38.33;;;17.30;99.90;;;;;;5003525;28;20524;-74
2021/09/11 05:06:52;;;;;;;120.18;38.70;;;17.30;99.90;;;;;;5000835;28;20038;-66
2021/09/11 05:09:17;;;;;;;131.85;39.13;;;17.30;99.90;;;;;;5003641;28;20018;-66
2021/09/11 05:11:43;;;;;;;127.53;38.92;;;17.30;99.90;;;;;;5001247;28;20088;-64
2021/09/11 05:14:08;;;;;;;147.23;39.17;;;17.30;99.90;;;;;;5003077;28;20075;-65
2021/09/11 05:16:34;;;;;;;144.30;39.00;;;17.30;99.90;;;;;;5003299;28;20045;-64
2021/09/11 05:19:00;;;;;;;118.97;38.42;;;17.30;99.90;;;;;;5000693;28;20475;-66
2021/09/11 05:21:25;;;;;;;115.45;39.65;;;17.30;99.90;;;;;;4993009;28;20478;-64
2021/09/11 05:23:51;;;;;;;108.43;36.63;;;17.30;99.90;;;;;;4998994;28;20033;-65
2021/09/11 05:26:17;;;;;;;104.80;38.03;;;17.30;99.90;;;;;;5013262;28;20037;-66
2021/09/11 05:28:42;;;;;;;113.25;37.05;;;17.30;99.90;;;;;;5001085;28;20113;-66
2021/09/11 05:31:08;;;;;;;108.45;37.70;;;17.20;99.90;;;;;;4999738;28;20030;-63
2021/09/11 05:33:33;;;;;;;125.97;38.28;;;17.30;99.90;;;;;;4991646;28;20018;-64
2021/09/11 05:35:59;;;;;;;141.98;38.28;;;17.30;99.90;;;;;;5000342;28;20037;-64
2021/09/11 05:38:24;;;;;;;113.95;37.25;;;17.40;99.90;;;;;;4997342;28;20030;-64
2021/09/11 05:40:50;;;;;;;103.53;37.47;;;17.40;99.90;;;;;;4992698;28;20084;-64
2021/09/11 05:43:16;;;;;;;97.90;36.90;;;17.50;99.90;;;;;;4998734;28;20045;-63
2021/09/11 05:45:42;;;;;;;98.15;36.03;;;17.40;99.90;;;;;;5005883;28;20203;-65
2021/09/11 05:48:07;;;;;;;85.07;34.90;;;17.50;99.90;;;;;;5008356;28;20042;-64
2021/09/11 05:50:33;;;;;;;81.03;34.22;;;17.50;99.90;;;;;;5009720;28;20084;-64
2021/09/11 05:52:59;;;;;;;85.57;33.80;;;17.50;99.90;;;;;;5000189;28;20022;-64
2021/09/11 05:55:25;;;;;;;78.05;32.20;;;17.60;99.90;;;;;;5005298;28;20626;-64
2021/09/11 05:57:50;;;;;;;70.07;31.58;;;17.60;99.90;;;;;;5001208;28;20588;-63
2021/09/11 06:00:16;;;;;;;71.70;32.83;;;17.50;99.90;;;;;;5004019;28;20030;-64
2021/09/11 06:02:42;;;;;;;57.45;29.33;;;17.60;99.90;;;;;;5004287;28;20076;-64
2021/09/11 06:05:07;;;;;;;59.80;29.27;;;17.50;99.90;;;;;;5001917;28;20088;-63
2021/09/11 06:07:34;;;;;;;59.08;30.20;;;17.60;99.90;;;;;;5001207;28;20054;-64
2021/09/11 06:10:00;;;;;;;53.28;29.05;;;17.60;99.90;;;;;;5004028;28;20034;-64
2021/09/11 06:12:26;;;;;;;51.42;29.15;;;17.60;99.90;;;;;;5013784;28;20029;-64
2021/09/11 06:14:52;;;;;;;56.10;29.95;;;17.70;99.80;;;;;;5010668;28;20505;-64
2021/09/11 06:17:17;;;;;;;54.20;28.33;;;17.80;99.90;;;;;;5007058;28;20481;-63
2021/09/11 06:19:43;;;;;;;46.50;26.90;;;17.80;99.80;;;;;;5007083;28;20030;-64
2021/09/11 06:22:10;;;;;;;53.67;27.95;;;17.80;99.70;;;;;;5006435;28;20022;-64
2021/09/11 06:24:37;;;;;;;45.35;26.13;;;17.80;99.70;;;;;;5008065;28;20117;-64
2021/09/11 06:27:04;;;;;;;45.00;27.05;;;17.80;99.60;;;;;;5006687;28;20089;-63
2021/09/11 06:29:30;;;;;;;47.78;26.08;;;17.80;99.60;;;;;;5004868;28;20027;-65
2021/09/11 06:31:56;;;;;;;43.38;25.83;;;17.80;99.60;;;;;;5001488;28;20101;-64
2021/09/11 06:34:21;;;;;;;41.45;24.65;;;17.70;99.50;;;;;;5007717;28;20115;-63
2021/09/11 06:36:47;;;;;;;40.95;24.85;;;17.80;99.40;;;;;;5002103;28;20621;-65
2021/09/11 06:39:13;;;;;;;44.80;25.30;;;17.80;99.30;;;;;;5002778;28;20065;-63
2021/09/11 06:41:39;;;;;;;45.17;26.17;;;17.70;99.30;;;;;;4996416;28;20508;-65
2021/09/11 06:44:05;;;;;;;41.47;25.35;;;17.80;99.30;;;;;;5005461;28;20469;-64
2021/09/11 06:46:31;;;;;;;38.60;24.38;;;17.80;99.30;;;;;;5008074;28;20109;-65
2021/09/11 06:48:56;;;;;;;43.53;25.45;;;17.90;99.30;;;;;;5005841;28;20030;-64
2021/09/11 06:51:22;;;;;;;47.58;24.98;;;18.00;99.40;;;;;;5002696;28;20039;-65
2021/09/11 06:53:49;;;;;;;39.42;22.58;;;18.10;99.30;;;;;;5002360;28;20759;-65
2021/09/11 06:56:15;;;;;;;42.10;23.10;;;18.10;99.10;;;;;;5010344;28;20112;-65
2021/09/11 06:58:40;;;;;;;35.78;22.55;;;18.10;98.90;;;;;;5010072;28;20113;-65
2021/09/11 07:01:06;;;;;;;35.90;22.58;;;18.10;98.80;;;;;;5000927;28;20045;-64
2021/09/11 07:03:32;;;;;;;41.92;23.90;;;18.20;98.70;;;;;;5005210;28;20026;-64
2021/09/11 07:05:58;;;;;;;37.33;24.63;;;18.10;98.50;;;;;;5006253;28;20030;-65
2021/09/11 07:08:24;;;;;;;40.83;24.10;;;18.10;98.60;;;;;;5005339;28;20026;-66
2021/09/11 07:10:50;;;;;;;45.42;25.27;;;18.10;98.50;;;;;;5004092;28;20038;-65
2021/09/11 07:13:15;;;;;;;44.63;25.10;;;18.00;98.60;;;;;;5004371;28;20033;-65
2021/09/11 07:15:42;;;;;;;48.90;27.27;;;18.00;98.60;;;;;;5007520;28;20029;-64
2021/09/11 07:18:08;;;;;;;48.92;26.52;;;17.90;98.70;;;;;;5004747;28;20626;-65
2021/09/11 07:20:34;;;;;;;53.17;27.90;;;17.90;98.80;;;;;;5000596;28;20034;-65
2021/09/11 07:23:00;;;;;;;53.45;28.02;;;17.90;98.80;;;;;;5004230;28;20038;-65
2021/09/11 07:25:26;;;;;;;51.42;28.92;;;17.90;98.80;;;;;;5006038;28;20018;-64
2021/09/11 07:27:51;;;;;;;56.78;31.23;;;17.80;98.70;;;;;;5004282;28;20033;-65
2021/09/11 07:30:17;;;;;;;61.20;30.42;;;17.80;98.90;;;;;;4998505;28;20025;-64
2021/09/11 07:32:42;;;;;;;70.20;30.83;;;17.80;99.00;;;;;;5004282;28;20471;-65
2021/09/11 07:35:08;;;;;;;61.92;30.70;;;17.70;98.90;;;;;;5007194;28;20050;-63
2021/09/11 07:37:34;;;;;;;67.13;31.95;;;17.70;98.90;;;;;;5004507;28;20600;-65
2021/09/11 07:39:59;;;;;;;64.35;32.25;;;17.80;99.00;;;;;;5004542;28;20034;-65
2021/09/11 07:42:25;;;;;;;69.68;32.83;;;17.80;98.90;;;;;;5011801;28;20022;-65
2021/09/11 07:44:51;;;;;;;74.10;32.13;;;17.70;99.00;;;;;;5003228;28;20363;-64
2021/09/11 07:47:19;;;;;;;71.70;32.47;;;17.70;99.10;;;;;;5004437;28;20030;-65
2021/09/11 07:49:46;;;;;;;75.30;33.42;;;17.70;99.00;;;;;;5006160;28;20025;-65
2021/09/11 07:52:11;;;;;;;65.65;32.60;;;17.80;99.10;;;;;;5002467;28;20021;-64
2021/09/11 07:54:37;;;;;;;75.60;32.42;;;17.90;99.10;;;;;;5003249;28;20028;-65
2021/09/11 07:57:03;;;;;;;64.47;30.48;;;18.00;99.20;;;;;;5003893;28;20064;-64
2021/09/11 07:59:28;;;;;;;66.45;30.80;;;18.00;99.10;;;;;;5001573;28;20036;-65
2021/09/11 08:01:54;;;;;;;57.70;30.40;;;17.90;98.80;;;;;;5006874;28;20109;-63
2021/09/11 08:04:20;;;;;;;61.72;30.35;;;17.90;98.90;;;;;;5005396;28;20507;-65
2021/09/11 08:06:45;;;;;;;63.15;31.60;;;18.00;99.00;;;;;;5006387;28;20037;-65
2021/09/11 08:09:11;;;;;;;60.25;30.05;;;18.00;99.00;;;;;;5004671;28;20045;-64
2021/09/11 08:11:36;;;;;;;59.33;31.25;;;18.00;99.00;;;;;;5000143;28;21518;-64
2021/09/11 08:14:02;;;;;;;53.08;29.98;;;17.90;98.80;;;;;;4994765;28;20061;-65
2021/09/11 08:16:28;;;;;;;52.55;30.20;;;17.90;98.80;;;;;;4996136;28;20056;-64
2021/09/11 08:18:54;;;;;;;52.22;28.75;;;17.90;98.90;;;;;;4997216;28;20026;-65
2021/09/11 08:21:20;;;;;;;47.97;27.02;;;17.90;98.80;;;;;;5005581;28;20032;-64
2021/09/11 08:23:46;;;;;;;54.92;28.83;;;17.90;98.70;;;;;;5001013;28;20548;-65
2021/09/11 08:26:12;;;;;;;50.13;29.17;;;17.90;98.70;;;;;;4999829;28;20584;-64
2021/09/11 08:28:37;;;;;;;51.30;30.23;;;17.90;98.80;;;;;;5004030;28;20121;-65
2021/09/11 08:31:03;;;;;;;48.83;27.60;;;17.90;98.80;;;;;;5005650;28;20064;-63
2021/09/11 08:33:29;;;;;;;47.63;28.63;;;17.90;98.60;;;;;;4998536;28;20029;-65
2021/09/11 08:35:55;;;;;;;51.05;27.83;;;17.90;98.60;;;;;;5000166;28;20030;-63
2021/09/11 08:38:20;;;;;;;41.47;26.02;;;18.00;98.60;;;;;;5004137;28;20025;-64
2021/09/11 08:40:46;;;;;;;47.67;27.55;;;18.00;98.40;;;;;;5004503;28;20033;-63
2021/09/11 08:43:16;;;;;;;48.33;28.00;;;18.00;98.30;;;;;;5002807;28;20799;-65
2021/09/11 08:45:42;;;;;;;43.33;26.35;;;18.00;98.40;;;;;;5004888;28;20065;-65
2021/09/11 08:48:07;;;;;;;44.67;25.88;;;18.10;98.20;;;;;;5003882;28;20054;-64
2021/09/11 08:50:33;;;;;;;47.20;25.23;;;18.20;98.30;;;;;;5005923;28;20037;-64
2021/09/11 08:52:59;;;;;;;42.47;27.42;;;18.20;98.00;;;;;;5001002;28;20034;-65
2021/09/11 08:55:24;;;;;;;36.55;25.15;;;18.30;97.90;;;;;;5005756;28;20594;-64
2021/09/11 08:58:00;;;;;;;36.35;24.05;;;18.30;97.70;;;;;;5001325;28;20512;-64
2021/09/11 09:00:41;;;;;;;40.78;25.27;;;18.50;97.50;;;;;;5004082;28;20034;-64
2021/09/11 09:03:36;;;;;;;36.88;23.80;;;18.50;97.30;;;;;;5003937;28;20539;-64
2021/09/11 09:06:22;;;;;;;38.13;24.20;;;18.60;97.20;;;;;;5006242;28;20037;-65
2021/09/11 09:08:57;;;;;;;36.17;22.73;;;18.70;96.80;;;;;;5004166;28;20040;-64
2021/09/11 09:11:27;;;;;;;35.10;22.48;;;18.80;96.30;;;;;;5003103;28;20066;-64
2021/09/11 09:13:53;;;;;;;36.90;23.80;;;18.90;96.50;;;;;;5003196;28;20033;-64
2021/09/11 09:16:20;;;;;;;34.22;22.35;;;18.90;96.10;;;;;;4999871;28;20027;-65
2021/09/11 09:18:46;;;;;;;35.70;23.08;;;18.80;96.20;;;;;;4995927;28;20120;-64
2021/09/11 09:21:27;;;;;;;36.88;23.42;;;18.90;96.20;;;;;;5005744;28;20105;-64
2021/09/11 09:23:55;;;;;;;32.63;20.95;;;19.10;95.60;;;;;;5006150;28;20118;-64
2021/09/11 09:26:22;;;;;;;34.50;22.67;;;19.20;95.10;;;;;;5009116;28;20564;-65
2021/09/11 09:29:04;;;;;;;31.25;21.08;;;19.50;94.60;;;;;;5007037;28;20485;-65
2021/09/11 09:31:30;;;;;;;31.77;22.40;;;19.70;94.10;;;;;;5006374;28;20034;-65
2021/09/11 09:33:56;;;;;;;28.77;21.00;;;19.90;93.70;;;;;;5007203;28;20113;-65
2021/09/11 09:36:22;;;;;;;27.92;20.33;;;20.20;93.10;;;;;;5003512;28;20592;-64
2021/09/11 09:38:59;;;;;;;29.77;19.98;;;20.40;90.90;;;;;;5005616;28;20373;-64
2021/09/11 09:41:25;;;;;;;25.70;18.52;;;20.50;90.90;;;;;;5007572;28;20033;-64
2021/09/11 09:43:51;;;;;;;24.15;17.50;;;20.50;89.10;;;;;;5004051;28;20038;-65
2021/09/11 09:46:18;;;;;;;24.45;16.90;;;20.50;90.10;;;;;;5005907;28;20509;-65
2021/09/11 09:48:46;;;;;;;23.85;16.70;;;20.30;89.40;;;;;;5007556;28;20092;-64
2021/09/11 09:51:22;;;;;;;20.98;15.85;;;20.20;90.30;;;;;;5008246;28;20026;-65
2021/09/11 09:53:51;;;;;;;20.95;15.50;;;20.00;89.30;;;;;;5005498;28;20030;-63
2021/09/11 09:56:17;;;;;;;24.08;17.00;;;19.80;89.80;;;;;;5007069;28;20025;-64
2021/09/11 09:58:43;;;;;;;21.85;15.90;;;19.70;90.30;;;;;;5006535;28;20455;-64
2021/09/11 10:01:09;;;;;;;22.02;15.80;;;19.80;90.60;;;;;;5008274;28;20113;-65
2021/09/11 10:03:34;;;;;;;21.67;16.00;;;20.10;90.60;;;;;;5004930;28;20030;-64
2021/09/11 10:06:27;;;;;;;24.20;16.52;;;20.70;90.00;;;;;;5008460;28;20038;-63
2021/09/11 10:09:04;;;;;;;20.20;15.30;;;21.20;89.20;;;;;;5004160;28;20500;-65
2021/09/11 10:11:34;;;;;;;19.35;12.77;;;21.70;88.10;;;;;;5005856;28;20029;-64
2021/09/11 10:14:02;;;;;;;15.47;11.63;;;21.60;83.90;;;;;;5004033;28;20041;-65
2021/09/11 10:16:33;;;;;;;15.75;11.02;;;21.70;84.00;;;;;;5002538;28;20072;-64
2021/09/11 10:19:12;;;;;;;12.90;10.38;;;21.30;83.80;;;;;;5002497;28;20034;-64
2021/09/11 10:21:38;;;;;;;11.98;9.88;;;21.00;84.10;;;;;;4999345;28;20033;-65
2021/09/11 10:24:07;;;;;;;16.65;10.90;;;20.60;85.40;;;;;;4998548;28;20113;-64
2021/09/11 10:26:51;;;;;;;12.70;9.77;;;20.20;86.50;;;;;;5008116;28;20018;-65
2021/09/11 10:29:32;;;;;;;14.38;10.13;;;20.00;86.80;;;;;;5005204;28;20726;-64
2021/09/11 10:32:00;;;;;;;;;;;19.90;87.10;;;;;;5000074;28;20057;-64
2021/09/11 10:35:03;;;;;;;13.27;9.88;;;19.80;88.10;;;;;;5005413;28;20004;-65
2021/09/11 10:37:52;;;;;;;11.68;9.43;;;19.60;87.60;;;;;;5000599;28;20034;-65
2021/09/11 10:40:38;;;;;;;15.10;8.95;;;19.60;87.90;;;;;;5006789;28;20037;-64
2021/09/11 10:43:09;;;;;;;11.38;8.80;;;19.50;87.20;;;;;;4990941;28;20112;-64
2021/09/11 10:46:02;;;;;;;11.85;9.23;;;19.40;87.20;;;;;;5006922;28;20056;-64
2021/09/11 10:48:37;;;;;;;12.18;8.70;;;19.30;87.80;;;;;;5000037;28;20044;-64
2021/09/11 10:51:30;;;;;;;12.13;8.70;;;19.30;88.00;;;;;;5000401;28;20104;-65
2021/09/11 10:54:26;;;;;;;12.93;8.75;;;19.30;88.00;;;;;;5003287;28;20034;-65
2021/09/11 10:57:02;;;;;;;10.98;8.13;;;19.50;88.30;;;;;;5005781;28;20041;-64
2021/09/11 10:59:30;;;;;;;13.23;7.97;;;19.60;88.10;;;;;;5010932;28;20107;-64
2021/09/11 11:02:07;;;;;;;11.63;7.47;;;19.70;87.30;;;;;;5006118;28;20029;-65
2021/09/11 11:04:34;;;;;;;12.48;6.72;;;19.80;86.70;;;;;;5005917;28;20132;-65
2021/09/11 11:07:02;;;;;;;9.68;7.32;;;19.90;86.40;;;;;;5005510;28;20044;-65
2021/09/11 11:09:32;;;;;;;11.65;6.65;;;20.00;87.60;;;;;;4998846;28;20558;-66
2021/09/11 11:11:58;;;;;;;7.95;5.95;;;19.90;86.30;;;;;;5003159;28;20135;-64
2021/09/11 11:14:23;;;;;;;9.57;6.65;;;19.80;86.80;;;;;;4993172;28;20049;-65
2021/09/11 11:16:52;;;;;;;9.23;6.80;;;19.90;86.70;;;;;;5006268;28;20030;-64
2021/09/11 11:19:26;;;;;;;9.23;6.72;;;20.00;86.80;;;;;;5002491;28;20393;-65
2021/09/11 11:22:10;;;;;;;7.85;5.55;;;20.50;86.80;;;;;;5004575;28;20057;-63
2021/09/11 11:24:44;;;;;;;7.95;5.25;;;21.10;86.30;;;;;;5006270;28;20064;-65
2021/09/11 11:27:15;;;;;;;6.97;4.90;;;21.10;80.70;;;;;;5005000;28;20034;-64
2021/09/11 11:29:46;;;;;;;6.65;4.63;;;20.90;82.60;;;;;;5000303;28;20099;-65
2021/09/11 11:32:13;;;;;;;6.95;4.55;;;20.70;82.80;;;;;;4999741;28;20444;-64
2021/09/11 11:34:39;;;;;;;6.30;4.40;;;20.50;82.00;;;;;;5004883;28;20038;-65
2021/09/11 11:37:09;;;;;;;7.13;4.65;;;20.50;83.20;;;;;;5006682;28;20087;-65
2021/09/11 11:39:38;;;;;;;6.70;4.18;;;20.50;83.00;;;;;;4996332;28;20104;-65
2021/09/11 11:42:09;;;;;;;7.07;4.32;;;21.00;82.70;;;;;;4996668;28;20030;-65
2021/09/11 11:44:43;;;;;;;5.93;4.20;;;21.00;80.20;;;;;;5003386;28;20080;-63
2021/09/11 11:47:30;;;;;;;6.38;4.20;;;21.80;81.20;;;;;;5005094;28;20030;-65
2021/09/11 11:49:56;;;;;;;7.85;4.07;;;21.70;79.50;;;;;;5002333;28;20525;-65
2021/09/11 11:52:23;;;;;;;7.15;4.10;;;21.60;79.30;;;;;;5007439;28;20049;-65
2021/09/11 11:54:49;;;;;;;6.90;3.95;;;21.30;79.20;;;;;;5005169;28;20022;-65
2021/09/11 11:57:23;;;;;;;7.22;4.40;;;21.00;78.60;;;;;;5003962;28;20037;-65
2021/09/11 12:00:06;;;;;;;7.78;3.80;;;21.00;79.10;;;;;;5001857;28;20061;-65
2021/09/11 12:02:35;;;;;;;5.25;3.90;;;21.30;80.40;;;;;;5006012;28;20475;-64
2021/09/11 12:05:25;;;;;;;5.97;4.00;;;21.00;78.80;;;;;;5005386;28;20044;-65
2021/09/11 12:08:11;;;;;;;6.07;3.28;;;21.00;79.40;;;;;;5003041;28;20100;-65
2021/09/11 12:10:37;;;;;;;9.32;3.50;;;21.20;78.60;;;;;;4984774;28;20046;-64
2021/09/11 12:13:10;;;;;;;5.10;3.20;;;21.40;79.00;;;;;;5008058;28;20034;-64
2021/09/11 12:15:37;;;;;;;4.22;3.05;;;21.30;77.10;;;;;;5002388;28;20028;-64
2021/09/11 12:18:08;;;;;;;4.95;3.45;;;21.40;76.50;;;;;;5001781;28;20030;-64
2021/09/11 12:20:41;;;;;;;6.00;3.40;;;21.60;78.00;;;;;;4986095;28;20488;-65
2021/09/11 12:23:11;;;;;;;5.63;3.38;;;21.30;77.20;;;;;;5006157;28;20117;-64
2021/09/11 12:25:52;;;;;;;4.90;3.47;;;21.20;77.60;;;;;;5005530;28;20117;-63
2021/09/11 12:28:36;;;;;;;6.38;3.53;;;21.00;78.20;;;;;;4998866;28;20041;-65
2021/09/11 12:31:06;;;;;;;5.20;3.63;;;21.00;79.30;;;;;;5003713;28;20400;-63